Time;durP1;ratioP1;P1;durP2;ratioP2;P2;SDS_P1;SDS_P2;PMS_P1;PMS_P2;Temp;Humidity;BMP_temperature;BMP_pressure;BME280_temperature;BME280_humidity;BME280_pressure;Samples;Min_cycle;Max_cycle;Signal;HPM_P1;HPM_P2
2023/09/27 04:52:09;;;;;;;;;;;;;;;13.26;100.00;101184.73;108700;1276;22592;-48
2023/09/27 04:54:37;;;;;;;;;;;;;;;13.37;100.00;101183.17;110118;1276;23110;-47
2023/09/27 04:57:04;;;;;;;;;;;;;;;13.48;100.00;101183.91;110001;1271;23640;-47
2023/09/27 04:59:32;;;;;;;;;;;;;;;13.60;100.00;101181.30;110005;1277;22428;-43
2023/09/27 05:01:59;;;;;;;;;;;;;;;13.71;100.00;101187.29;110036;1272;22535;-44
2023/09/27 05:04:27;;;;;;;;;;;;;;;13.82;100.00;101183.09;110037;1269;22420;-44
2023/09/27 05:06:54;;;;;;;;;;;;;;;13.93;100.00;101179.92;110043;1277;23213;-44
2023/09/27 05:09:21;;;;;;;;;;;;;;;14.05;100.00;101175.73;110039;1276;22420;-44
2023/09/27 05:11:49;;;;;;;;;;;;;;;14.18;100.00;101176.95;110041;1277;22465;-45
2023/09/27 05:14:17;;;;;;;;;;;;;;;14.33;100.00;101176.40;109945;1269;22439;-48
2023/09/27 05:16:44;;;;;;;;;;;;;;;14.48;100.00;101177.63;109875;1277;22737;-48
2023/09/27 05:19:13;;;;;;;;;;;;;;;14.63;100.00;101178.65;109507;1262;23294;-48
2023/09/27 05:21:41;;;;;;;;;;;;;;;14.78;100.00;101176.33;109619;1274;22523;-45
2023/09/27 05:24:10;;;;;;;;;;;;;;;14.92;100.00;101179.80;109390;1274;22502;-44
2023/09/27 05:26:39;;;;;;;;;;;;;;;15.06;100.00;101183.25;109656;1270;23152;-45
2023/09/27 05:29:19;;;;;;;;;;;;;;;15.19;100.00;101178.44;109368;1263;22862;-45
2023/09/27 05:32:02;;;;;;;;;;;;;;;15.38;100.00;101179.75;109596;1270;22503;-47
2023/09/27 05:34:40;;;;;;;;;;;;;;;15.57;100.00;101181.58;109596;1272;22434;-44
2023/09/27 05:37:12;;;;;;;;;;;;;;;15.75;100.00;101181.65;108865;1274;22509;-48
2023/09/27 05:39:39;;;;;;;;;;;;;;;15.92;100.00;101182.57;109688;1275;22518;-48
2023/09/27 05:42:26;;;;;;;;;;;;;;;16.12;100.00;101183.81;109465;1270;23377;-48
2023/09/27 05:45:36;;;;;;;;;;;;;;;16.38;99.56;101184.98;109354;1270;22639;-45
2023/09/27 05:48:16;;;;;;;;;;;;;;;16.62;99.12;101186.50;108533;1277;22543;-48
2023/09/27 05:51:03;;;;;;;;;;;;;;;16.86;98.33;101185.20;109344;1270;22782;-45
2023/09/27 05:53:31;;;;;;;;;;;;;;;17.06;97.10;101187.07;109663;1272;22488;-45
2023/09/27 05:56:05;;;;;;;;;;;;;;;17.27;95.70;101195.26;109679;1272;22786;-48
2023/09/27 05:58:36;;;;;;;;;;;;;;;17.45;94.37;101191.13;109758;1275;22517;-45
2023/09/27 06:01:04;;;;;;;;;;;;;;;17.63;93.19;101189.11;109542;1272;23269;-45
2023/09/27 06:03:35;;;;;;;;;;;;;;;17.79;92.06;101186.05;109722;1272;23735;-45
2023/09/27 06:06:04;;;;;;;;;;;;;;;17.94;90.39;101183.90;109770;1271;22485;-48
2023/09/27 06:08:32;;;;;;;;;;;;;;;18.07;88.92;101181.02;109847;1277;22447;-46
2023/09/27 06:10:59;;;;;;;;;;;;;;;18.20;87.69;101183.80;109700;1271;22435;-45
2023/09/27 06:13:28;;;;;;;;;;;;;;;18.33;86.66;101188.88;109623;1271;23153;-44
2023/09/27 06:16:11;;;;;;;;;;;;;;;18.46;85.28;101186.86;109618;1272;22509;-47
2023/09/27 06:18:40;;;;;;;;;;;;;;;18.60;84.22;101186.61;109890;1270;23305;-47
2023/09/27 06:21:08;;;;;;;;;;;;;;;18.71;83.19;101186.77;108629;1272;22536;-45
2023/09/27 06:23:35;;;;;;;;;;;;;;;18.82;82.19;101187.80;109403;1270;22629;-48
2023/09/27 06:26:03;;;;;;;;;;;;;;;18.96;81.19;101189.46;109483;1271;23429;-48
2023/09/27 06:28:32;;;;;;;;;;;;;;;19.10;80.01;101188.63;108879;1277;22513;-45
2023/09/27 06:31:00;;;;;;;;;;;;;;;19.24;78.77;101195.23;109194;1272;22582;-48
2023/09/27 06:33:27;;;;;;;;;;;;;;;19.39;77.86;101194.55;108860;1271;23250;-47
2023/09/27 06:36:00;;;;;;;;;;;;;;;19.52;76.72;101193.73;109274;1274;22926;-45
2023/09/27 06:38:27;;;;;;;;;;;;;;;19.66;75.47;101196.10;109409;1266;22973;-47
2023/09/27 06:40:55;;;;;;;;;;;;;;;19.79;74.52;101198.45;109826;1269;22466;-45
2023/09/27 06:43:28;;;;;;;;;;;;;;;19.92;73.50;101198.48;108970;1275;22640;-46
2023/09/27 06:45:58;;;;;;;;;;;;;;;20.05;72.76;101195.52;109592;1276;22414;-49
2023/09/27 06:55:53;;;;;;;;;;;;;;;20.55;69.58;101189.45;106088;1302;547019;-48
2023/09/27 06:58:22;;;;;;;;;;;;;;;20.69;68.63;101188.53;109085;1278;22467;-47
2023/09/27 07:00:51;;;;;;;;;;;;;;;20.84;67.63;101193.80;109008;1283;22452;-52
2023/09/27 07:03:24;;;;;;;;;;;;;;;20.99;66.92;101191.24;108248;1286;22518;-45
2023/09/27 07:05:53;;;;;;;;;;;;;;;21.15;65.80;101192.52;108852;1283;22558;-49
2023/09/27 07:08:20;;;;;;;;;;;;;;;21.30;65.29;101191.74;108832;1272;173179;-49
2023/09/27 07:10:54;;;;;;;;;;;;;;;21.45;64.49;101189.88;109410;1282;23490;-46
2023/09/27 07:13:22;;;;;;;;;;;;;;;21.60;63.74;101188.89;109336;1279;23302;-45
2023/09/27 07:15:54;;;;;;;;;;;;;;;21.73;62.38;101184.41;108991;1284;22519;-46
2023/09/27 07:18:22;;;;;;;;;;;;;;;21.87;61.71;101186.62;109265;1276;22537;-48
2023/09/27 07:20:50;;;;;;;;;;;;;;;22.04;61.04;101185.34;109060;1279;22777;-48
2023/09/27 07:23:17;;;;;;;;;;;;;;;22.18;60.15;101186.30;109310;1283;22508;-45
2023/09/27 07:25:50;;;;;;;;;;;;;;;22.35;59.21;101189.80;109346;1279;22840;-49
2023/09/27 07:28:18;;;;;;;;;;;;;;;22.50;58.25;101186.43;109036;1280;22730;-50
2023/09/27 07:30:45;;;;;;;;;;;;;;;22.65;57.47;101187.48;108697;1282;22852;-50
2023/09/27 07:33:24;;;;;;;;;;;;;;;22.76;56.75;101185.87;109284;1275;22541;-48
2023/09/27 07:35:58;;;;;;;;;;;;;;;22.87;56.46;101184.92;109251;1286;22449;-48
2023/09/27 07:38:26;;;;;;;;;;;;;;;23.02;55.36;101178.34;109222;1279;22470;-44
2023/09/27 07:40:58;;;;;;;;;;;;;;;23.17;54.76;101179.17;109160;1287;23578;-49
2023/09/27 07:43:25;;;;;;;;;;;;;;;23.35;54.38;101176.71;109153;1276;22738;-50
2023/09/27 07:45:54;;;;;;;;;;;;;;;23.49;53.65;101176.68;109175;1284;22619;-45
2023/09/27 07:48:21;;;;;;;;;;;;;;;23.63;53.12;101173.64;108878;1285;25210;-47
2023/09/27 07:50:59;;;;;;;;;;;;;;;23.77;52.28;101174.52;108795;1279;22565;-46
2023/09/27 07:53:27;;;;;;;;;;;;;;;23.93;51.68;101171.55;109212;1276;22545;-48
2023/09/27 07:55:56;;;;;;;;;;;;;;;24.07;50.82;101170.23;108430;1280;22531;-48
2023/09/27 07:58:23;;;;;;;;;;;;;;;24.20;50.64;101169.70;108169;1279;23444;-49
2023/09/27 08:00:50;;;;;;;;;;;;;;;24.32;50.33;101170.77;109142;1280;23429;-50
2023/09/27 08:03:19;;;;;;;;;;;;;;;24.43;49.25;101167.13;108971;1282;22576;-49
2023/09/27 08:05:46;;;;;;;;;;;;;;;24.50;47.77;101168.79;109429;1277;22829;-45
2023/09/27 08:08:13;;;;;;;;;;;;;;;24.55;47.03;101165.73;109280;1277;22518;-44
2023/09/27 08:10:49;;;;;;;;;;;;;;;24.60;46.60;101166.51;108481;1285;22513;-45
2023/09/27 08:13:17;;;;;;;;;;;;;;;24.68;46.45;101166.55;108590;1280;22559;-46
2023/09/27 08:15:46;;;;;;;;;;;;;;;24.78;45.80;101166.64;109037;1286;23097;-50
2023/09/27 08:18:12;;;;;;;;;;;;;;;24.88;45.56;101164.19;109353;1280;22505;-49
2023/09/27 08:20:40;;;;;;;;;;;;;;;25.00;44.82;101157.05;109247;1276;23767;-50
2023/09/27 08:23:12;;;;;;;;;;;;;;;25.13;43.15;101157.02;109276;1282;22555;-46
2023/09/27 08:25:40;;;;;;;;;;;;;;;25.28;43.24;101158.63;109309;1279;23378;-45
2023/09/27 08:28:09;;;;;;;;;;;;;;;25.42;42.61;101155.80;109307;1280;23146;-45
2023/09/27 08:30:42;;;;;;;;;;;;;;;25.54;41.46;101153.82;109630;1276;23573;-47
2023/09/27 08:33:09;;;;;;;;;;;;;;;25.65;40.75;101156.99;108619;1276;23074;-49
2023/09/27 08:35:35;;;;;;;;;;;;;;;25.77;40.39;101151.77;108394;1270;22505;-46
2023/09/27 08:38:02;;;;;;;;;;;;;;;25.87;39.90;101147.17;109788;1263;22830;-49
2023/09/27 08:40:29;;;;;;;;;;;;;;;25.97;39.37;101144.87;109822;1280;22939;-49
2023/09/27 08:43:02;;;;;;;;;;;;;;;26.10;38.56;101138.34;109778;1274;23380;-49
2023/09/27 08:45:31;;;;;;;;;;;;;;;26.24;38.49;101141.70;109686;1274;22447;-49
2023/09/27 08:47:57;;;;;;;;;;;;;;;26.36;38.39;101137.33;109712;1274;22485;-49
2023/09/27 08:50:36;;;;;;;;;;;;;;;26.46;37.86;101136.13;109815;1276;22472;-46
2023/09/27 08:53:03;;;;;;;;;;;;;;;26.56;37.83;101131.80;109417;1269;24356;-45
2023/09/27 08:55:29;;;;;;;;;;;;;;;26.68;37.31;101130.98;109772;1273;22444;-45
2023/09/27 08:57:56;;;;;;;;;;;;;;;26.79;37.03;101132.73;109775;1273;22532;-45
2023/09/27 09:00:26;;;;;;;;;;;;;;;26.87;36.31;101128.04;109926;1270;22452;-45
2023/09/27 09:02:57;;;;;;;;;;;;;;;26.94;36.39;101132.09;109469;1274;22554;-53
2023/09/27 09:05:30;;;;;;;;;;;;;;;27.02;35.92;101125.36;109859;1272;22581;-45
2023/09/27 09:08:09;;;;;;;;;;;;;;;27.12;35.65;101124.70;109475;1272;22498;-46
2023/09/27 09:11:01;;;;;;;;;;;;;;;27.19;35.40;101126.42;109977;1273;22468;-47
2023/09/27 09:17:26;;;;;;;;;;;;;;;27.36;34.52;101124.05;109987;1270;22474;-46
2023/09/27 09:20:50;;;;;;;;;;;;;;;27.41;34.03;101120.86;109762;1270;24264;-50
2023/09/27 09:23:53;;;;;;;;;;;;;;;27.46;34.44;101123.31;110002;1270;23244;-49
2023/09/27 09:26:45;;;;;;;;;;;;;;;27.49;34.19;101124.92;110013;1269;23178;-46
2023/09/27 09:29:50;;;;;;;;;;;;;;;27.51;33.83;101122.11;110062;1270;22427;-45
2023/09/27 09:33:06;;;;;;;;;;;;;;;27.51;33.51;101114.76;110062;1270;22451;-46
2023/09/27 09:38:48;;;;;;;;;;;;;;;27.34;33.04;101114.31;110200;1270;23576;-45
2023/09/27 09:41:15;;;;;;;;;;;;;;;27.28;32.79;101110.85;110165;1269;22643;-45
2023/09/27 09:43:42;;;;;;;;;;;;;;;27.22;32.76;101109.98;109571;1273;23352;-46
2023/09/27 09:46:14;;;;;;;;;;;;;;;27.16;32.90;101111.38;110211;1271;22461;-46
2023/09/27 09:48:41;;;;;;;;;;;;;;;27.13;32.49;101106.01;109973;1273;22543;-45
2023/09/27 09:51:11;;;;;;;;;;;;;;;27.10;32.52;101104.08;109832;1270;22509;-49
2023/09/27 09:53:39;;;;;;;;;;;;;;;27.08;32.40;101106.46;109936;1264;23714;-46
2023/09/27 09:56:20;;;;;;;;;;;;;;;27.08;32.53;101103.42;110164;1257;22491;-49
2023/09/27 09:58:51;;;;;;;;;;;;;;;27.12;32.59;101099.42;109842;1276;22498;-45
2023/09/27 10:01:21;;;;;;;;;;;;;;;27.23;32.54;101099.54;109091;1272;23111;-46
2023/09/27 10:03:52;;;;;;;;;;;;;;;27.39;31.92;101094.69;109504;1270;22522;-49
2023/09/27 10:06:22;;;;;;;;;;;;;;;27.61;31.71;101092.30;109627;1273;22535;-49
2023/09/27 10:09:13;;;;;;;;;;;;;;;27.89;31.51;101093.05;109905;1270;22610;-46
2023/09/27 10:11:41;;;;;;;;;;;;;;;28.13;31.36;101091.02;109974;1275;22868;-50
2023/09/27 10:14:08;;;;;;;;;;;;;;;28.42;30.78;101086.05;110022;1267;22843;-50
2023/09/27 10:16:35;;;;;;;;;;;;;;;28.72;30.12;101086.52;109140;1265;22940;-49
2023/09/27 10:19:05;;;;;;;;;;;;;;;29.08;29.93;101086.88;109998;1263;22937;-48
2023/09/27 10:21:31;;;;;;;;;;;;;;;29.52;29.58;101084.18;110042;1263;22543;-49
2023/09/27 10:24:00;;;;;;;;;;;;;;;29.97;28.65;101086.58;109575;1276;23581;-46
2023/09/27 10:26:27;;;;;;;;;;;;;;;30.43;28.13;101080.14;109773;1253;22516;-49
2023/09/27 10:29:03;;;;;;;;;;;;;;;30.93;27.43;101073.46;109740;1269;22522;-50
2023/09/27 10:31:30;;;;;;;;;;;;;;;31.45;26.81;101071.41;109986;1273;22504;-50
2023/09/27 10:33:57;;;;;;;;;;;;;;;31.88;26.08;101066.75;109650;1276;23186;-51
2023/09/27 10:36:24;;;;;;;;;;;;;;;32.24;25.12;101071.65;109685;1270;22496;-46
2023/09/27 10:38:51;;;;;;;;;;;;;;;32.58;24.40;101075.48;110015;1269;22508;-50
2023/09/27 10:41:31;;;;;;;;;;;;;;;32.88;24.24;101072.16;109931;1275;23441;-46
2023/09/27 10:43:59;;;;;;;;;;;;;;;33.25;23.74;101064.40;110078;1264;23006;-51
2023/09/27 10:46:29;;;;;;;;;;;;;;;33.66;23.42;101057.04;109584;1269;22541;-53
2023/09/27 10:49:00;;;;;;;;;;;;;;;34.10;22.90;101059.91;109924;1270;23217;-45
2023/09/27 10:51:29;;;;;;;;;;;;;;;34.45;22.70;101051.83;109414;1270;22551;-50
2023/09/27 10:53:56;;;;;;;;;;;;;;;34.75;22.29;101057.41;109847;1276;22483;-51
2023/09/27 10:56:23;;;;;;;;;;;;;;;34.99;21.61;101056.73;110064;1269;22643;-46
2023/09/27 10:58:52;;;;;;;;;;;;;;;35.16;21.58;101055.58;110045;1276;22519;-46
2023/09/27 11:01:21;;;;;;;;;;;;;;;35.28;21.38;101050.44;109490;1273;22515;-45
2023/09/27 11:03:48;;;;;;;;;;;;;;;35.34;21.46;101046.46;110155;1270;22438;-47
2023/09/27 11:06:15;;;;;;;;;;;;;;;35.39;21.44;101044.52;109815;1270;22499;-46
2023/09/27 11:08:43;;;;;;;;;;;;;;;35.50;21.30;101045.02;110036;1276;22507;-47
2023/09/27 11:11:11;;;;;;;;;;;;;;;35.67;20.90;101048.26;110018;1276;22452;-51
2023/09/27 11:13:41;;;;;;;;;;;;;;;35.84;20.61;101045.73;110087;1276;22826;-51
2023/09/27 11:16:20;;;;;;;;;;;;;;;36.03;20.39;101043.96;110030;1276;22474;-50
2023/09/27 11:18:51;;;;;;;;;;;;;;;36.14;19.99;101034.06;110036;1276;22450;-52
2023/09/27 11:21:19;;;;;;;;;;;;;;;36.04;19.87;101037.14;109995;1275;23369;-45
2023/09/27 11:23:54;;;;;;;;;;;;;;;35.56;20.00;101037.38;110049;1276;22441;-47
2023/09/27 11:26:22;;;;;;;;;;;;;;;34.98;20.63;101032.04;109158;1264;22506;-50
2023/09/27 11:28:59;;;;;;;;;;;;;;;34.52;21.12;101028.40;110024;1270;22437;-50
2023/09/27 11:31:32;;;;;;;;;;;;;;;34.14;21.57;101026.44;109968;1276;22594;-49
2023/09/27 11:34:15;;;;;;;;;;;;;;;33.79;21.77;101024.09;110095;1276;22443;-48
2023/09/27 11:36:42;;;;;;;;;;;;;;;33.31;22.31;101027.59;110112;1275;23738;-50
2023/09/27 11:39:09;;;;;;;;;;;;;;;32.81;22.65;101031.89;110082;1270;23093;-50
2023/09/27 11:41:37;;;;;;;;;;;;;;;32.35;22.88;101032.52;110147;1269;22675;-51
2023/09/27 11:44:16;;;;;;;;;;;;;;;31.99;22.96;101030.33;110226;1266;23482;-50
2023/09/27 11:46:43;;;;;;;;;;;;;;;31.65;23.30;101023.52;110248;1273;22434;-50
2023/09/27 11:49:10;;;;;;;;;;;;;;;31.33;23.89;101018.25;110216;1269;22513;-49
2023/09/27 11:51:37;;;;;;;;;;;;;;;31.11;24.01;101015.60;110269;1266;22506;-50
2023/09/27 11:54:07;;;;;;;;;;;;;;;30.89;24.53;101017.34;110188;1273;22428;-49
2023/09/27 11:56:35;;;;;;;;;;;;;;;30.56;25.22;101018.16;110202;1276;23213;-48
2023/09/27 11:59:02;;;;;;;;;;;;;;;30.28;25.37;101010.67;110260;1268;22430;-49
2023/09/27 12:01:29;;;;;;;;;;;;;;;30.08;25.79;101008.11;110071;1270;22518;-53
2023/09/27 12:03:57;;;;;;;;;;;;;;;29.82;26.41;101010.27;110241;1276;22432;-49
2023/09/27 12:06:25;;;;;;;;;;;;;;;29.55;26.94;101006.16;110267;1270;23367;-49
2023/09/27 12:08:54;;;;;;;;;;;;;;;29.26;26.94;101014.20;110262;1271;22492;-51
2023/09/27 12:11:21;;;;;;;;;;;;;;;29.06;27.37;101008.55;110198;1264;22493;-51
2023/09/27 12:13:48;;;;;;;;;;;;;;;29.03;27.86;101013.10;110226;1261;22433;-51
2023/09/27 12:16:16;;;;;;;;;;;;;;;29.06;27.70;101014.44;110170;1275;22454;-45
2023/09/27 12:18:44;;;;;;;;;;;;;;;29.12;27.58;101014.83;110145;1260;23169;-45
2023/09/27 12:21:10;;;;;;;;;;;;;;;29.19;27.69;101001.24;110215;1276;23832;-46
2023/09/27 12:23:37;;;;;;;;;;;;;;;29.33;27.57;101007.09;110244;1276;23381;-46
2023/09/27 12:26:04;;;;;;;;;;;;;;;29.43;27.26;101009.66;110209;1276;22461;-47
2023/09/27 12:28:33;;;;;;;;;;;;;;;29.41;27.08;101010.89;109743;1269;22542;-46
2023/09/27 12:31:00;;;;;;;;;;;;;;;29.33;27.04;101006.23;110155;1270;22438;-46
2023/09/27 12:33:27;;;;;;;;;;;;;;;29.19;27.10;101003.74;110161;1260;23355;-46
2023/09/27 12:35:54;;;;;;;;;;;;;;;29.04;27.26;100995.77;110159;1273;22458;-46
2023/09/27 12:38:22;;;;;;;;;;;;;;;28.93;27.44;100996.64;110208;1269;22544;-45
2023/09/27 12:40:49;;;;;;;;;;;;;;;28.86;27.70;100996.50;110206;1276;23433;-45
2023/09/27 12:43:16;;;;;;;;;;;;;;;28.85;27.58;100996.95;110203;1276;23005;-45
2023/09/27 12:45:42;;;;;;;;;;;;;;;28.89;27.78;100995.97;110238;1263;23067;-46
2023/09/27 12:48:09;;;;;;;;;;;;;;;28.98;27.56;100995.42;110243;1276;22453;-46
2023/09/27 12:50:42;;;;;;;;;;;;;;;29.07;27.34;100991.08;110252;1276;22417;-46
2023/09/27 12:53:11;;;;;;;;;;;;;;;29.11;27.46;100984.87;110119;1270;22464;-50
2023/09/27 12:55:41;;;;;;;;;;;;;;;29.08;27.47;100984.74;110072;1276;22502;-49
2023/09/27 12:58:08;;;;;;;;;;;;;;;29.07;27.66;100981.55;110323;1276;23179;-50
2023/09/27 13:00:38;;;;;;;;;;;;;;;29.12;27.51;100981.91;110375;1266;22424;-49
2023/09/27 13:03:06;;;;;;;;;;;;;;;29.24;27.33;100985.96;109626;1276;23607;-49
2023/09/27 13:05:37;;;;;;;;;;;;;;;29.31;27.22;100982.48;110373;1270;22437;-50
2023/09/27 13:08:04;;;;;;;;;;;;;;;29.29;27.19;100978.27;109623;1276;23107;-49
2023/09/27 13:10:34;;;;;;;;;;;;;;;29.24;27.08;100977.55;110370;1276;22438;-50
2023/09/27 13:13:02;;;;;;;;;;;;;;;29.15;27.12;100972.95;110319;1276;22638;-49
2023/09/27 13:15:28;;;;;;;;;;;;;;;29.09;27.27;100974.22;110309;1272;22439;-50
2023/09/27 13:17:55;;;;;;;;;;;;;;;29.03;27.43;100971.75;110361;1275;22442;-49
2023/09/27 13:20:22;;;;;;;;;;;;;;;28.97;27.48;100975.39;110316;1276;22390;-50
2023/09/27 13:22:49;;;;;;;;;;;;;;;28.95;27.52;100971.99;110336;1275;22556;-50
2023/09/27 13:25:16;;;;;;;;;;;;;;;28.96;27.62;100969.39;110320;1273;23085;-50
2023/09/27 13:27:44;;;;;;;;;;;;;;;28.95;27.28;100965.48;110369;1275;22435;-50
2023/09/27 13:30:11;;;;;;;;;;;;;;;28.90;27.50;100964.13;110322;1276;22432;-49
2023/09/27 13:32:59;;;;;;;;;;;;;;;28.93;27.43;100965.23;110346;1276;22432;-47
2023/09/27 13:35:26;;;;;;;;;;;;;;;29.13;27.10;100958.52;110420;1276;22413;-46
2023/09/27 13:37:53;;;;;;;;;;;;;;;29.22;26.99;100961.52;110407;1276;22429;-46
2023/09/27 13:40:20;;;;;;;;;;;;;;;29.14;27.03;100965.80;110444;1276;23300;-50
2023/09/27 13:42:46;;;;;;;;;;;;;;;28.96;27.21;100962.55;110273;1276;22489;-49
2023/09/27 13:45:13;;;;;;;;;;;;;;;28.82;27.44;100962.55;110282;1276;22658;-50
2023/09/27 13:47:40;;;;;;;;;;;;;;;28.71;27.62;100961.99;108185;1276;22608;-46
2023/09/27 13:50:07;;;;;;;;;;;;;;;28.71;27.72;100967.20;108078;1276;25201;-49
2023/09/27 13:52:34;;;;;;;;;;;;;;;28.72;27.61;100967.52;107767;1275;22529;-46
2023/09/27 13:55:01;;;;;;;;;;;;;;;28.67;27.30;100965.70;110395;1276;22528;-51
2023/09/27 13:57:28;;;;;;;;;;;;;;;28.58;27.68;100963.59;110421;1276;22511;-50
2023/09/27 13:59:55;;;;;;;;;;;;;;;28.52;27.66;100966.26;108903;1263;25225;-49
2023/09/27 14:02:22;;;;;;;;;;;;;;;28.56;27.60;100967.27;107989;1275;23264;-50
2023/09/27 14:04:49;;;;;;;;;;;;;;;28.55;27.88;100969.34;107428;1276;25331;-49
2023/09/27 14:07:16;;;;;;;;;;;;;;;28.54;27.69;100965.63;107345;1276;23691;-45
2023/09/27 14:09:43;;;;;;;;;;;;;;;28.69;27.69;100965.54;106979;1276;25291;-45
2023/09/27 14:12:10;;;;;;;;;;;;;;;28.69;27.55;100962.50;109225;1266;22582;-50
2023/09/27 14:14:36;;;;;;;;;;;;;;;28.53;27.69;100963.37;110396;1267;22412;-47
2023/09/27 14:17:03;;;;;;;;;;;;;;;28.35;27.97;100968.96;110084;1276;22544;-46
2023/09/27 14:19:30;;;;;;;;;;;;;;;28.25;27.95;100968.35;107559;1276;24410;-46
2023/09/27 14:21:58;;;;;;;;;;;;;;;28.21;27.97;100964.61;107465;1266;25373;-45
2023/09/27 14:24:26;;;;;;;;;;;;;;;28.19;27.91;100962.24;107220;1276;22547;-45
2023/09/27 14:26:53;;;;;;;;;;;;;;;28.14;28.05;100961.70;107728;1262;24354;-45
